Capitol Logistics 409


KRFD
Chicago/Rockford International Airport
Rockford, Illinois, US
KTUL
Tulsa International Airport
Tulsa, Oklahoma, US

Activity Log

Date Flight Route Aircraft Duration
09/06/2020 CPX409 BDF J105 SGF VINTA2 B738 1h 33m
01/29/2019 CPX409 BDF J105 SGF VINTA2 B752 1h 41m
01/19/2019 CPX409 BDF J105 SGF VINTA2 B752 1h 34m

Route Details

Aircraft Information
Primary: Boeing 757-200SF
Backup: Boeing 737-800BCF
Route Data
Distance: 479nm
Sched. Duration: 1h 30m
Avg. Duration: 1h 36m (+6m)
Times Flown: 3
Recm'd Route: BDF J105 SGF VINTA2
Planned Altitude: 37,000ft
Origin Wx: KRFD 190154Z 28004KT 10SM FEW029 M04/M11 A3004 RMK AO2 SLP183 T10441106 $
Dest. Wx: KTUL 190153Z 35003KT 10SM CLR 09/M01 A3005 RMK AO2 SLP177 T00941011
Notes:

Financial History
Total Freight: 158,482lbs
Average Load: 52,827lbs/flt
Fuel Used: 22,084lbs
Avg. Fuel Used: 7,361lbs/flt
Fuel Expense: $15,787
Avg. Fuel Expense: $5,262
Avg. Fuel Cost: $0.71/lbs
Total Gross Income: $204,829
Pilot Pay: $367
Total Expenses: $22,278
Total Revenue: $166,158
Average Revenue: $68,276.41